sensor_id;sensor_type;location;lat;lon;timestamp;P1;durP1;ratioP1;P2;durP2;ratioP2
70216;SDS011;65567;55.684;37.570;2023-12-20T00:01:37;3.05;;;1.40;;
70216;SDS011;65567;55.684;37.570;2023-12-20T00:04:03;3.90;;;1.63;;
70216;SDS011;65567;55.684;37.570;2023-12-20T00:06:29;2.55;;;1.38;;
70216;SDS011;65567;55.684;37.570;2023-12-20T00:08:55;2.35;;;1.40;;
70216;SDS011;65567;55.684;37.570;2023-12-20T00:11:23;1.55;;;1.00;;
70216;SDS011;65567;55.684;37.570;2023-12-20T00:13:49;3.05;;;1.33;;
70216;SDS011;65567;55.684;37.570;2023-12-20T00:16:15;2.83;;;1.50;;
70216;SDS011;65567;55.684;37.570;2023-12-20T00:18:43;2.63;;;1.60;;
70216;SDS011;65567;55.684;37.570;2023-12-20T00:21:08;3.15;;;1.48;;
70216;SDS011;65567;55.684;37.570;2023-12-20T00:23:34;4.07;;;1.55;;
70216;SDS011;65567;55.684;37.570;2023-12-20T00:26:00;2.50;;;1.58;;
70216;SDS011;65567;55.684;37.570;2023-12-20T00:28:25;3.45;;;1.80;;
70216;SDS011;65567;55.684;37.570;2023-12-20T00:30:54;2.70;;;1.60;;
70216;SDS011;65567;55.684;37.570;2023-12-20T00:33:20;3.15;;;2.08;;
70216;SDS011;65567;55.684;37.570;2023-12-20T00:35:45;1.25;;;0.85;;
70216;SDS011;65567;55.684;37.570;2023-12-20T00:38:11;3.22;;;1.90;;
70216;SDS011;65567;55.684;37.570;2023-12-20T00:40:37;4.47;;;2.13;;
70216;SDS011;65567;55.684;37.570;2023-12-20T00:43:03;2.40;;;1.50;;
70216;SDS011;65567;55.684;37.570;2023-12-20T00:45:29;3.30;;;1.70;;
70216;SDS011;65567;55.684;37.570;2023-12-20T00:47:54;2.42;;;1.35;;
70216;SDS011;65567;55.684;37.570;2023-12-20T00:50:20;2.50;;;1.58;;
70216;SDS011;65567;55.684;37.570;2023-12-20T00:52:46;3.63;;;1.80;;
70216;SDS011;65567;55.684;37.570;2023-12-20T00:55:13;4.28;;;2.60;;
70216;SDS011;65567;55.684;37.570;2023-12-20T00:57:39;3.00;;;1.98;;
70216;SDS011;65567;55.684;37.570;2023-12-20T01:00:05;3.08;;;1.80;;
70216;SDS011;65567;55.684;37.570;2023-12-20T01:02:31;2.63;;;1.85;;
70216;SDS011;65567;55.684;37.570;2023-12-20T01:04:56;3.60;;;1.90;;
70216;SDS011;65567;55.684;37.570;2023-12-20T01:07:22;2.17;;;1.20;;
70216;SDS011;65567;55.684;37.570;2023-12-20T01:09:51;4.53;;;2.13;;
70216;SDS011;65567;55.684;37.570;2023-12-20T01:12:16;2.30;;;1.35;;
70216;SDS011;65567;55.684;37.570;2023-12-20T01:14:42;3.60;;;2.15;;
70216;SDS011;65567;55.684;37.570;2023-12-20T01:17:08;3.13;;;1.80;;
70216;SDS011;65567;55.684;37.570;2023-12-20T01:19:34;2.47;;;1.40;;
70216;SDS011;65567;55.684;37.570;2023-12-20T01:22:00;2.92;;;1.60;;
70216;SDS011;65567;55.684;37.570;2023-12-20T01:24:25;3.03;;;1.77;;
70216;SDS011;65567;55.684;37.570;2023-12-20T01:26:51;2.53;;;1.63;;
70216;SDS011;65567;55.684;37.570;2023-12-20T01:29:17;3.05;;;1.38;;
70216;SDS011;65567;55.684;37.570;2023-12-20T01:31:43;2.50;;;1.38;;
70216;SDS011;65567;55.684;37.570;2023-12-20T01:34:08;2.85;;;0.90;;
70216;SDS011;65567;55.684;37.570;2023-12-20T01:36:34;3.78;;;1.42;;
70216;SDS011;65567;55.684;37.570;2023-12-20T01:38:59;3.38;;;1.48;;
70216;SDS011;65567;55.684;37.570;2023-12-20T01:41:25;2.53;;;1.13;;
70216;SDS011;65567;55.684;37.570;2023-12-20T01:43:51;4.07;;;1.38;;
70216;SDS011;65567;55.684;37.570;2023-12-20T01:46:18;2.65;;;1.48;;
70216;SDS011;65567;55.684;37.570;2023-12-20T01:48:44;2.25;;;1.30;;
70216;SDS011;65567;55.684;37.570;2023-12-20T01:51:10;2.65;;;0.95;;
70216;SDS011;65567;55.684;37.570;2023-12-20T01:53:37;3.80;;;1.40;;
70216;SDS011;65567;55.684;37.570;2023-12-20T01:56:04;4.05;;;1.13;;
70216;SDS011;65567;55.684;37.570;2023-12-20T01:58:30;2.60;;;1.25;;
70216;SDS011;65567;55.684;37.570;2023-12-20T02:00:56;2.05;;;1.10;;
70216;SDS011;65567;55.684;37.570;2023-12-20T02:03:23;2.35;;;1.30;;
70216;SDS011;65567;55.684;37.570;2023-12-20T02:05:49;2.63;;;0.95;;
70216;SDS011;65567;55.684;37.570;2023-12-20T02:08:15;2.47;;;1.00;;
70216;SDS011;65567;55.684;37.570;2023-12-20T02:10:41;2.25;;;0.90;;
70216;SDS011;65567;55.684;37.570;2023-12-20T02:13:07;3.95;;;1.10;;
70216;SDS011;65567;55.684;37.570;2023-12-20T02:15:32;2.55;;;0.80;;
70216;SDS011;65567;55.684;37.570;2023-12-20T02:17:58;1.80;;;0.75;;
70216;SDS011;65567;55.684;37.570;2023-12-20T02:20:27;1.65;;;0.90;;
70216;SDS011;65567;55.684;37.570;2023-12-20T02:22:53;3.50;;;0.88;;
70216;SDS011;65567;55.684;37.570;2023-12-20T02:25:19;2.22;;;0.85;;
70216;SDS011;65567;55.684;37.570;2023-12-20T02:27:45;2.20;;;0.63;;
70216;SDS011;65567;55.684;37.570;2023-12-20T02:30:10;3.65;;;0.90;;
70216;SDS011;65567;55.684;37.570;2023-12-20T02:32:36;2.10;;;0.90;;
70216;SDS011;65567;55.684;37.570;2023-12-20T02:35:02;2.63;;;0.80;;
70216;SDS011;65567;55.684;37.570;2023-12-20T02:37:29;2.88;;;1.00;;
70216;SDS011;65567;55.684;37.570;2023-12-20T02:39:58;1.50;;;0.80;;
70216;SDS011;65567;55.684;37.570;2023-12-20T02:42:23;0.75;;;0.40;;
70216;SDS011;65567;55.684;37.570;2023-12-20T02:44:49;1.35;;;0.80;;
70216;SDS011;65567;55.684;37.570;2023-12-20T02:47:14;2.15;;;0.45;;
70216;SDS011;65567;55.684;37.570;2023-12-20T02:49:40;2.10;;;0.82;;
70216;SDS011;65567;55.684;37.570;2023-12-20T02:52:06;1.80;;;0.85;;
70216;SDS011;65567;55.684;37.570;2023-12-20T02:54:31;2.15;;;0.88;;
70216;SDS011;65567;55.684;37.570;2023-12-20T02:56:57;2.80;;;0.98;;
70216;SDS011;65567;55.684;37.570;2023-12-20T02:59:23;2.50;;;1.45;;
70216;SDS011;65567;55.684;37.570;2023-12-20T03:01:48;3.22;;;1.65;;
70216;SDS011;65567;55.684;37.570;2023-12-20T03:04:14;5.07;;;2.08;;
70216;SDS011;65567;55.684;37.570;2023-12-20T03:06:40;2.72;;;1.60;;
70216;SDS011;65567;55.684;37.570;2023-12-20T03:09:05;4.25;;;1.63;;
70216;SDS011;65567;55.684;37.570;2023-12-20T03:11:31;4.32;;;1.85;;
70216;SDS011;65567;55.684;37.570;2023-12-20T03:13:57;3.22;;;1.70;;
70216;SDS011;65567;55.684;37.570;2023-12-20T03:16:22;2.15;;;1.00;;
70216;SDS011;65567;55.684;37.570;2023-12-20T03:18:49;5.40;;;2.30;;
70216;SDS011;65567;55.684;37.570;2023-12-20T03:21:14;2.20;;;1.45;;
70216;SDS011;65567;55.684;37.570;2023-12-20T03:23:40;4.97;;;2.10;;
70216;SDS011;65567;55.684;37.570;2023-12-20T03:26:06;3.55;;;1.67;;
70216;SDS011;65567;55.684;37.570;2023-12-20T03:28:33;3.33;;;1.70;;
70216;SDS011;65567;55.684;37.570;2023-12-20T03:30:59;2.53;;;1.40;;
70216;SDS011;65567;55.684;37.570;2023-12-20T03:33:27;3.03;;;1.27;;
70216;SDS011;65567;55.684;37.570;2023-12-20T03:35:53;2.90;;;1.88;;
70216;SDS011;65567;55.684;37.570;2023-12-20T03:38:19;2.90;;;1.40;;
70216;SDS011;65567;55.684;37.570;2023-12-20T03:40:45;2.47;;;1.20;;
70216;SDS011;65567;55.684;37.570;2023-12-20T03:43:11;5.60;;;1.45;;
70216;SDS011;65567;55.684;37.570;2023-12-20T03:45:37;2.50;;;1.10;;
70216;SDS011;65567;55.684;37.570;2023-12-20T03:48:03;1.92;;;1.40;;
70216;SDS011;65567;55.684;37.570;2023-12-20T03:50:29;3.63;;;1.30;;
70216;SDS011;65567;55.684;37.570;2023-12-20T03:52:54;3.47;;;2.08;;
70216;SDS011;65567;55.684;37.570;2023-12-20T03:55:20;3.08;;;1.85;;
70216;SDS011;65567;55.684;37.570;2023-12-20T03:57:45;2.88;;;1.98;;
70216;SDS011;65567;55.684;37.570;2023-12-20T04:00:11;3.40;;;1.88;;
70216;SDS011;65567;55.684;37.570;2023-12-20T04:02:38;4.45;;;2.45;;
70216;SDS011;65567;55.684;37.570;2023-12-20T04:05:05;4.53;;;2.47;;
70216;SDS011;65567;55.684;37.570;2023-12-20T04:07:32;5.70;;;3.20;;
70216;SDS011;65567;55.684;37.570;2023-12-20T04:09:58;4.03;;;2.88;;
70216;SDS011;65567;55.684;37.570;2023-12-20T04:12:23;4.00;;;2.65;;
70216;SDS011;65567;55.684;37.570;2023-12-20T04:14:49;2.60;;;1.83;;
70216;SDS011;65567;55.684;37.570;2023-12-20T04:17:15;3.92;;;2.65;;
70216;SDS011;65567;55.684;37.570;2023-12-20T04:19:42;5.00;;;2.53;;
70216;SDS011;65567;55.684;37.570;2023-12-20T04:22:08;4.05;;;2.80;;
70216;SDS011;65567;55.684;37.570;2023-12-20T04:24:34;3.95;;;2.35;;
70216;SDS011;65567;55.684;37.570;2023-12-20T04:26:59;5.97;;;2.63;;
70216;SDS011;65567;55.684;37.570;2023-12-20T04:29:25;5.13;;;2.75;;
70216;SDS011;65567;55.684;37.570;2023-12-20T04:31:51;5.32;;;2.22;;
70216;SDS011;65567;55.684;37.570;2023-12-20T04:34:17;3.35;;;2.13;;
70216;SDS011;65567;55.684;37.570;2023-12-20T04:36:43;5.40;;;3.22;;
70216;SDS011;65567;55.684;37.570;2023-12-20T04:39:09;3.40;;;2.17;;
70216;SDS011;65567;55.684;37.570;2023-12-20T04:41:35;5.30;;;2.95;;
70216;SDS011;65567;55.684;37.570;2023-12-20T04:44:01;4.65;;;2.38;;
70216;SDS011;65567;55.684;37.570;2023-12-20T04:46:27;4.82;;;2.25;;
70216;SDS011;65567;55.684;37.570;2023-12-20T04:48:53;3.30;;;2.28;;
70216;SDS011;65567;55.684;37.570;2023-12-20T04:51:18;5.15;;;2.53;;
70216;SDS011;65567;55.684;37.570;2023-12-20T04:53:44;3.63;;;2.35;;
70216;SDS011;65567;55.684;37.570;2023-12-20T04:56:09;5.68;;;2.70;;
70216;SDS011;65567;55.684;37.570;2023-12-20T04:58:35;5.05;;;2.53;;
70216;SDS011;65567;55.684;37.570;2023-12-20T05:01:01;6.05;;;2.83;;
70216;SDS011;65567;55.684;37.570;2023-12-20T05:03:28;6.13;;;2.72;;
70216;SDS011;65567;55.684;37.570;2023-12-20T05:05:54;7.85;;;3.28;;
70216;SDS011;65567;55.684;37.570;2023-12-20T05:08:19;6.03;;;2.55;;
70216;SDS011;65567;55.684;37.570;2023-12-20T05:10:45;4.60;;;2.25;;
70216;SDS011;65567;55.684;37.570;2023-12-20T05:13:11;5.25;;;2.30;;
70216;SDS011;65567;55.684;37.570;2023-12-20T05:15:37;8.70;;;4.60;;
70216;SDS011;65567;55.684;37.570;2023-12-20T05:18:02;5.43;;;3.30;;
70216;SDS011;65567;55.684;37.570;2023-12-20T05:20:28;6.85;;;2.47;;
70216;SDS011;65567;55.684;37.570;2023-12-20T05:22:54;3.20;;;1.63;;
70216;SDS011;65567;55.684;37.570;2023-12-20T05:25:20;7.43;;;4.10;;
70216;SDS011;65567;55.684;37.570;2023-12-20T05:27:46;3.75;;;2.40;;
70216;SDS011;65567;55.684;37.570;2023-12-20T05:30:12;3.50;;;1.98;;
70216;SDS011;65567;55.684;37.570;2023-12-20T05:32:38;3.47;;;2.05;;
70216;SDS011;65567;55.684;37.570;2023-12-20T05:35:03;5.32;;;2.17;;
70216;SDS011;65567;55.684;37.570;2023-12-20T05:37:29;4.45;;;2.70;;
70216;SDS011;65567;55.684;37.570;2023-12-20T05:39:55;7.72;;;2.60;;
70216;SDS011;65567;55.684;37.570;2023-12-20T05:42:21;5.85;;;2.70;;
70216;SDS011;65567;55.684;37.570;2023-12-20T05:44:46;5.22;;;3.20;;
70216;SDS011;65567;55.684;37.570;2023-12-20T05:47:12;5.72;;;2.70;;
70216;SDS011;65567;55.684;37.570;2023-12-20T05:49:37;4.38;;;2.85;;
70216;SDS011;65567;55.684;37.570;2023-12-20T05:52:03;4.30;;;2.65;;
70216;SDS011;65567;55.684;37.570;2023-12-20T05:54:29;3.10;;;2.20;;
70216;SDS011;65567;55.684;37.570;2023-12-20T05:56:55;5.18;;;2.85;;
70216;SDS011;65567;55.684;37.570;2023-12-20T05:59:23;5.03;;;2.83;;
70216;SDS011;65567;55.684;37.570;2023-12-20T06:01:49;4.45;;;2.45;;
70216;SDS011;65567;55.684;37.570;2023-12-20T06:04:15;3.78;;;2.08;;
70216;SDS011;65567;55.684;37.570;2023-12-20T06:06:44;3.47;;;2.20;;
70216;SDS011;65567;55.684;37.570;2023-12-20T06:09:10;5.75;;;2.88;;
70216;SDS011;65567;55.684;37.570;2023-12-20T06:11:36;5.13;;;2.90;;
70216;SDS011;65567;55.684;37.570;2023-12-20T06:14:02;5.28;;;2.33;;
70216;SDS011;65567;55.684;37.570;2023-12-20T06:16:28;5.35;;;2.60;;
70216;SDS011;65567;55.684;37.570;2023-12-20T06:18:53;3.67;;;2.00;;
70216;SDS011;65567;55.684;37.570;2023-12-20T06:21:19;4.80;;;2.63;;
70216;SDS011;65567;55.684;37.570;2023-12-20T06:23:45;3.40;;;1.60;;
70216;SDS011;65567;55.684;37.570;2023-12-20T06:26:10;6.10;;;3.33;;
70216;SDS011;65567;55.684;37.570;2023-12-20T06:28:36;1.98;;;1.33;;
70216;SDS011;65567;55.684;37.570;2023-12-20T06:31:02;3.38;;;1.80;;
70216;SDS011;65567;55.684;37.570;2023-12-20T06:33:28;5.68;;;2.90;;
70216;SDS011;65567;55.684;37.570;2023-12-20T06:35:56;3.83;;;2.03;;
70216;SDS011;65567;55.684;37.570;2023-12-20T06:38:21;3.58;;;1.80;;
70216;SDS011;65567;55.684;37.570;2023-12-20T06:40:47;4.25;;;2.20;;
70216;SDS011;65567;55.684;37.570;2023-12-20T06:43:13;4.68;;;2.20;;
70216;SDS011;65567;55.684;37.570;2023-12-20T06:45:39;5.40;;;2.25;;
70216;SDS011;65567;55.684;37.570;2023-12-20T06:48:04;2.05;;;1.30;;
70216;SDS011;65567;55.684;37.570;2023-12-20T06:50:33;5.65;;;2.42;;
70216;SDS011;65567;55.684;37.570;2023-12-20T06:52:59;3.17;;;1.83;;
70216;SDS011;65567;55.684;37.570;2023-12-20T06:55:25;5.00;;;2.70;;
70216;SDS011;65567;55.684;37.570;2023-12-20T06:57:50;5.53;;;3.15;;
70216;SDS011;65567;55.684;37.570;2023-12-20T07:00:16;4.30;;;2.55;;
70216;SDS011;65567;55.684;37.570;2023-12-20T07:02:45;5.00;;;2.33;;
70216;SDS011;65567;55.684;37.570;2023-12-20T07:05:12;5.32;;;2.20;;
70216;SDS011;65567;55.684;37.570;2023-12-20T07:07:41;3.97;;;2.17;;
70216;SDS011;65567;55.684;37.570;2023-12-20T07:10:09;3.17;;;1.73;;
70216;SDS011;65567;55.684;37.570;2023-12-20T07:12:35;5.00;;;2.30;;
70216;SDS011;65567;55.684;37.570;2023-12-20T07:15:01;4.40;;;2.28;;
70216;SDS011;65567;55.684;37.570;2023-12-20T07:17:37;4.80;;;2.38;;
70216;SDS011;65567;55.684;37.570;2023-12-20T07:20:06;5.55;;;2.58;;
70216;SDS011;65567;55.684;37.570;2023-12-20T07:22:35;5.03;;;2.15;;
70216;SDS011;65567;55.684;37.570;2023-12-20T07:25:01;4.07;;;2.17;;
70216;SDS011;65567;55.684;37.570;2023-12-20T07:27:27;4.43;;;1.42;;
70216;SDS011;65567;55.684;37.570;2023-12-20T07:29:53;2.38;;;1.05;;
70216;SDS011;65567;55.684;37.570;2023-12-20T07:32:18;4.00;;;2.40;;
70216;SDS011;65567;55.684;37.570;2023-12-20T07:34:44;2.80;;;1.30;;
70216;SDS011;65567;55.684;37.570;2023-12-20T07:37:10;8.15;;;1.92;;
70216;SDS011;65567;55.684;37.570;2023-12-20T07:39:40;2.90;;;1.60;;
70216;SDS011;65567;55.684;37.570;2023-12-20T07:42:06;4.15;;;2.03;;
70216;SDS011;65567;55.684;37.570;2023-12-20T07:44:32;5.00;;;2.10;;
70216;SDS011;65567;55.684;37.570;2023-12-20T07:46:58;2.97;;;1.70;;
70216;SDS011;65567;55.684;37.570;2023-12-20T07:49:24;3.80;;;1.80;;
70216;SDS011;65567;55.684;37.570;2023-12-20T07:51:50;4.22;;;1.50;;
70216;SDS011;65567;55.684;37.570;2023-12-20T07:54:15;2.40;;;1.40;;
70216;SDS011;65567;55.684;37.570;2023-12-20T07:56:41;3.22;;;1.83;;
70216;SDS011;65567;55.684;37.570;2023-12-20T07:59:07;3.80;;;1.40;;
70216;SDS011;65567;55.684;37.570;2023-12-20T08:01:33;3.70;;;1.95;;
70216;SDS011;65567;55.684;37.570;2023-12-20T08:03:58;4.03;;;2.08;;
70216;SDS011;65567;55.684;37.570;2023-12-20T08:06:24;3.85;;;1.80;;
70216;SDS011;65567;55.684;37.570;2023-12-20T08:08:49;4.25;;;1.92;;
70216;SDS011;65567;55.684;37.570;2023-12-20T08:11:15;4.53;;;1.35;;
70216;SDS011;65567;55.684;37.570;2023-12-20T08:13:41;5.85;;;2.03;;
70216;SDS011;65567;55.684;37.570;2023-12-20T08:16:06;2.97;;;1.65;;
70216;SDS011;65567;55.684;37.570;2023-12-20T08:18:35;4.25;;;1.75;;
70216;SDS011;65567;55.684;37.570;2023-12-20T08:21:00;4.32;;;1.80;;
70216;SDS011;65567;55.684;37.570;2023-12-20T08:23:26;3.72;;;2.13;;
70216;SDS011;65567;55.684;37.570;2023-12-20T08:25:52;3.75;;;1.13;;
70216;SDS011;65567;55.684;37.570;2023-12-20T08:28:18;2.15;;;1.20;;
70216;SDS011;65567;55.684;37.570;2023-12-20T08:30:44;3.17;;;1.45;;
70216;SDS011;65567;55.684;37.570;2023-12-20T08:33:10;3.47;;;1.80;;
70216;SDS011;65567;55.684;37.570;2023-12-20T08:35:38;2.40;;;1.42;;
70216;SDS011;65567;55.684;37.570;2023-12-20T08:38:05;3.80;;;1.90;;
70216;SDS011;65567;55.684;37.570;2023-12-20T08:40:31;4.15;;;1.90;;
70216;SDS011;65567;55.684;37.570;2023-12-20T08:42:59;3.97;;;2.40;;
70216;SDS011;65567;55.684;37.570;2023-12-20T08:45:25;5.10;;;2.20;;
70216;SDS011;65567;55.684;37.570;2023-12-20T08:47:50;4.38;;;2.17;;
70216;SDS011;65567;55.684;37.570;2023-12-20T08:50:16;4.85;;;2.13;;
70216;SDS011;65567;55.684;37.570;2023-12-20T08:52:42;4.50;;;2.00;;
70216;SDS011;65567;55.684;37.570;2023-12-20T08:55:07;7.00;;;2.47;;
70216;SDS011;65567;55.684;37.570;2023-12-20T08:57:35;6.75;;;2.78;;
70216;SDS011;65567;55.684;37.570;2023-12-20T09:00:01;3.95;;;2.13;;
70216;SDS011;65567;55.684;37.570;2023-12-20T09:02:28;3.38;;;2.00;;
70216;SDS011;65567;55.684;37.570;2023-12-20T09:04:54;4.47;;;2.20;;
70216;SDS011;65567;55.684;37.570;2023-12-20T09:07:24;4.35;;;2.05;;
70216;SDS011;65567;55.684;37.570;2023-12-20T09:09:53;5.65;;;1.90;;
70216;SDS011;65567;55.684;37.570;2023-12-20T09:12:19;4.38;;;2.10;;
70216;SDS011;65567;55.684;37.570;2023-12-20T09:14:46;3.45;;;2.03;;
70216;SDS011;65567;55.684;37.570;2023-12-20T09:17:12;3.50;;;2.03;;
70216;SDS011;65567;55.684;37.570;2023-12-20T09:19:42;4.43;;;2.15;;
70216;SDS011;65567;55.684;37.570;2023-12-20T09:22:11;5.75;;;2.45;;
70216;SDS011;65567;55.684;37.570;2023-12-20T09:24:37;2.72;;;1.17;;
70216;SDS011;65567;55.684;37.570;2023-12-20T09:27:04;5.93;;;2.55;;
70216;SDS011;65567;55.684;37.570;2023-12-20T09:29:32;4.63;;;2.70;;
70216;SDS011;65567;55.684;37.570;2023-12-20T09:31:57;3.92;;;1.80;;
70216;SDS011;65567;55.684;37.570;2023-12-20T09:34:23;4.22;;;1.90;;
70216;SDS011;65567;55.684;37.570;2023-12-20T09:36:50;3.65;;;2.38;;
70216;SDS011;65567;55.684;37.570;2023-12-20T09:39:17;4.20;;;2.65;;
70216;SDS011;65567;55.684;37.570;2023-12-20T09:42:07;4.55;;;2.30;;
70216;SDS011;65567;55.684;37.570;2023-12-20T09:44:33;4.90;;;2.15;;
70216;SDS011;65567;55.684;37.570;2023-12-20T09:47:08;3.03;;;1.80;;
70216;SDS011;65567;55.684;37.570;2023-12-20T09:49:45;5.13;;;2.10;;
70216;SDS011;65567;55.684;37.570;2023-12-20T09:52:14;3.38;;;1.40;;
70216;SDS011;65567;55.684;37.570;2023-12-20T09:54:42;2.58;;;1.65;;
70216;SDS011;65567;55.684;37.570;2023-12-20T09:57:09;4.43;;;1.92;;
70216;SDS011;65567;55.684;37.570;2023-12-20T09:59:38;3.33;;;1.90;;
70216;SDS011;65567;55.684;37.570;2023-12-20T10:02:07;3.15;;;1.80;;
70216;SDS011;65567;55.684;37.570;2023-12-20T10:04:37;5.10;;;2.20;;
70216;SDS011;65567;55.684;37.570;2023-12-20T10:07:09;4.00;;;1.80;;
70216;SDS011;65567;55.684;37.570;2023-12-20T10:09:35;3.08;;;1.83;;
70216;SDS011;65567;55.684;37.570;2023-12-20T10:12:01;3.70;;;1.88;;
70216;SDS011;65567;55.684;37.570;2023-12-20T10:14:27;4.50;;;1.75;;
70216;SDS011;65567;55.684;37.570;2023-12-20T10:16:52;3.33;;;1.58;;
70216;SDS011;65567;55.684;37.570;2023-12-20T10:19:19;3.15;;;1.60;;
70216;SDS011;65567;55.684;37.570;2023-12-20T10:21:45;2.42;;;1.30;;
70216;SDS011;65567;55.684;37.570;2023-12-20T10:24:16;3.08;;;1.70;;
70216;SDS011;65567;55.684;37.570;2023-12-20T10:26:43;4.03;;;1.65;;
70216;SDS011;65567;55.684;37.570;2023-12-20T10:29:09;2.30;;;1.40;;
70216;SDS011;65567;55.684;37.570;2023-12-20T10:31:35;2.75;;;1.60;;
70216;SDS011;65567;55.684;37.570;2023-12-20T10:34:02;4.80;;;1.52;;
70216;SDS011;65567;55.684;37.570;2023-12-20T10:36:28;2.80;;;1.30;;
70216;SDS011;65567;55.684;37.570;2023-12-20T10:38:56;2.55;;;1.40;;
70216;SDS011;65567;55.684;37.570;2023-12-20T10:41:27;3.50;;;1.60;;
70216;SDS011;65567;55.684;37.570;2023-12-20T10:44:03;5.90;;;1.98;;
70216;SDS011;65567;55.684;37.570;2023-12-20T10:46:33;5.00;;;1.75;;
70216;SDS011;65567;55.684;37.570;2023-12-20T10:48:59;5.00;;;1.75;;
70216;SDS011;65567;55.684;37.570;2023-12-20T10:51:27;1.63;;;1.30;;
70216;SDS011;65567;55.684;37.570;2023-12-20T10:53:55;2.45;;;1.20;;
70216;SDS011;65567;55.684;37.570;2023-12-20T10:56:21;2.97;;;1.50;;
70216;SDS011;65567;55.684;37.570;2023-12-20T10:58:48;2.40;;;1.67;;
70216;SDS011;65567;55.684;37.570;2023-12-20T11:01:22;1.85;;;1.20;;
70216;SDS011;65567;55.684;37.570;2023-12-20T11:03:52;3.13;;;1.43;;
70216;SDS011;65567;55.684;37.570;2023-12-20T11:06:36;2.75;;;1.63;;
70216;SDS011;65567;55.684;37.570;2023-12-20T11:09:22;2.42;;;1.20;;
70216;SDS011;65567;55.684;37.570;2023-12-20T11:14:41;2.38;;;1.60;;
70216;SDS011;65567;55.684;37.570;2023-12-20T11:17:12;2.42;;;1.38;;
70216;SDS011;65567;55.684;37.570;2023-12-20T11:20:33;1.75;;;1.00;;
70216;SDS011;65567;55.684;37.570;2023-12-20T11:22:35;2.53;;;1.58;;
70216;SDS011;65567;55.684;37.570;2023-12-20T11:25:03;2.47;;;1.63;;
70216;SDS011;65567;55.684;37.570;2023-12-20T11:27:35;2.33;;;1.42;;
70216;SDS011;65567;55.684;37.570;2023-12-20T11:30:10;2.30;;;1.52;;
70216;SDS011;65567;55.684;37.570;2023-12-20T11:32:36;2.60;;;1.50;;
70216;SDS011;65567;55.684;37.570;2023-12-20T11:37:32;3.83;;;2.10;;
70216;SDS011;65567;55.684;37.570;2023-12-20T11:40:22;3.15;;;1.60;;
70216;SDS011;65567;55.684;37.570;2023-12-20T11:42:51;3.38;;;1.55;;
70216;SDS011;65567;55.684;37.570;2023-12-20T11:45:23;3.78;;;1.60;;
70216;SDS011;65567;55.684;37.570;2023-12-20T11:47:51;2.95;;;1.40;;
70216;SDS011;65567;55.684;37.570;2023-12-20T11:50:20;2.85;;;1.45;;
70216;SDS011;65567;55.684;37.570;2023-12-20T11:52:46;3.05;;;1.73;;
70216;SDS011;65567;55.684;37.570;2023-12-20T11:55:12;1.98;;;1.27;;
70216;SDS011;65567;55.684;37.570;2023-12-20T11:57:39;3.00;;;1.70;;
70216;SDS011;65567;55.684;37.570;2023-12-20T12:00:05;3.53;;;1.60;;
70216;SDS011;65567;55.684;37.570;2023-12-20T12:02:31;2.92;;;1.70;;
70216;SDS011;65567;55.684;37.570;2023-12-20T12:04:57;5.75;;;1.83;;
70216;SDS011;65567;55.684;37.570;2023-12-20T12:07:24;3.92;;;1.73;;
70216;SDS011;65567;55.684;37.570;2023-12-20T12:09:51;2.85;;;1.50;;
70216;SDS011;65567;55.684;37.570;2023-12-20T12:12:17;3.17;;;1.42;;
70216;SDS011;65567;55.684;37.570;2023-12-20T12:14:44;2.10;;;1.13;;
70216;SDS011;65567;55.684;37.570;2023-12-20T12:17:11;3.60;;;1.90;;
70216;SDS011;65567;55.684;37.570;2023-12-20T12:19:38;1.70;;;1.10;;
70216;SDS011;65567;55.684;37.570;2023-12-20T12:22:08;1.25;;;0.80;;
70216;SDS011;65567;55.684;37.570;2023-12-20T12:24:44;2.40;;;1.17;;
70216;SDS011;65567;55.684;37.570;2023-12-20T12:27:12;2.35;;;1.42;;
70216;SDS011;65567;55.684;37.570;2023-12-20T12:29:38;3.80;;;1.92;;
70216;SDS011;65567;55.684;37.570;2023-12-20T12:32:05;3.03;;;1.35;;
70216;SDS011;65567;55.684;37.570;2023-12-20T12:34:32;5.05;;;1.13;;
70216;SDS011;65567;55.684;37.570;2023-12-20T12:36:59;3.08;;;1.30;;
70216;SDS011;65567;55.684;37.570;2023-12-20T12:39:25;5.97;;;1.42;;
70216;SDS011;65567;55.684;37.570;2023-12-20T12:41:52;2.83;;;1.30;;
70216;SDS011;65567;55.684;37.570;2023-12-20T12:44:18;3.55;;;1.58;;
70216;SDS011;65567;55.684;37.570;2023-12-20T12:46:47;3.53;;;1.40;;
70216;SDS011;65567;55.684;37.570;2023-12-20T12:49:15;5.18;;;1.70;;
70216;SDS011;65567;55.684;37.570;2023-12-20T12:51:40;3.28;;;1.90;;
70216;SDS011;65567;55.684;37.570;2023-12-20T12:54:06;3.67;;;1.67;;
70216;SDS011;65567;55.684;37.570;2023-12-20T12:56:32;7.40;;;1.50;;
70216;SDS011;65567;55.684;37.570;2023-12-20T12:58:58;2.47;;;1.50;;
70216;SDS011;65567;55.684;37.570;2023-12-20T13:01:24;2.75;;;1.70;;
70216;SDS011;65567;55.684;37.570;2023-12-20T13:03:49;4.07;;;1.50;;
70216;SDS011;65567;55.684;37.570;2023-12-20T13:06:15;2.22;;;1.38;;
70216;SDS011;65567;55.684;37.570;2023-12-20T13:08:41;4.05;;;1.40;;
70216;SDS011;65567;55.684;37.570;2023-12-20T13:11:07;2.03;;;1.17;;
70216;SDS011;65567;55.684;37.570;2023-12-20T13:13:32;3.22;;;0.93;;
70216;SDS011;65567;55.684;37.570;2023-12-20T13:15:58;2.78;;;1.23;;
70216;SDS011;65567;55.684;37.570;2023-12-20T13:18:24;1.30;;;0.68;;
70216;SDS011;65567;55.684;37.570;2023-12-20T13:20:50;1.67;;;0.90;;
70216;SDS011;65567;55.684;37.570;2023-12-20T13:23:15;1.77;;;0.60;;
70216;SDS011;65567;55.684;37.570;2023-12-20T13:25:43;3.45;;;1.33;;
70216;SDS011;65567;55.684;37.570;2023-12-20T13:28:12;2.97;;;1.38;;
70216;SDS011;65567;55.684;37.570;2023-12-20T13:30:39;1.40;;;0.77;;
70216;SDS011;65567;55.684;37.570;2023-12-20T13:33:05;1.80;;;0.88;;
70216;SDS011;65567;55.684;37.570;2023-12-20T13:35:31;3.45;;;1.40;;
70216;SDS011;65567;55.684;37.570;2023-12-20T13:37:58;2.20;;;1.30;;
70216;SDS011;65567;55.684;37.570;2023-12-20T13:40:24;3.70;;;1.40;;
70216;SDS011;65567;55.684;37.570;2023-12-20T13:42:50;1.02;;;0.75;;
70216;SDS011;65567;55.684;37.570;2023-12-20T13:45:16;2.80;;;1.40;;
70216;SDS011;65567;55.684;37.570;2023-12-20T13:47:41;2.40;;;1.45;;
70216;SDS011;65567;55.684;37.570;2023-12-20T13:50:10;2.92;;;1.27;;
70216;SDS011;65567;55.684;37.570;2023-12-20T13:52:36;3.10;;;1.67;;
70216;SDS011;65567;55.684;37.570;2023-12-20T13:55:01;3.85;;;1.40;;
70216;SDS011;65567;55.684;37.570;2023-12-20T13:57:27;2.10;;;1.27;;
70216;SDS011;65567;55.684;37.570;2023-12-20T13:59:54;3.50;;;1.08;;
70216;SDS011;65567;55.684;37.570;2023-12-20T14:02:22;2.30;;;1.25;;
70216;SDS011;65567;55.684;37.570;2023-12-20T14:04:48;0.95;;;0.55;;
70216;SDS011;65567;55.684;37.570;2023-12-20T14:07:15;1.70;;;0.70;;
70216;SDS011;65567;55.684;37.570;2023-12-20T14:09:40;2.97;;;1.42;;
70216;SDS011;65567;55.684;37.570;2023-12-20T14:12:11;3.20;;;1.10;;
70216;SDS011;65567;55.684;37.570;2023-12-20T14:14:37;4.70;;;1.17;;
70216;SDS011;65567;55.684;37.570;2023-12-20T14:17:03;1.95;;;1.13;;
70216;SDS011;65567;55.684;37.570;2023-12-20T14:19:37;2.95;;;0.98;;
70216;SDS011;65567;55.684;37.570;2023-12-20T14:22:03;3.10;;;1.70;;
70216;SDS011;65567;55.684;37.570;2023-12-20T14:24:29;2.30;;;0.73;;
70216;SDS011;65567;55.684;37.570;2023-12-20T14:26:55;1.90;;;1.05;;
70216;SDS011;65567;55.684;37.570;2023-12-20T14:29:20;3.70;;;1.67;;
70216;SDS011;65567;55.684;37.570;2023-12-20T14:31:49;3.28;;;1.65;;
70216;SDS011;65567;55.684;37.570;2023-12-20T14:34:15;2.15;;;1.00;;
70216;SDS011;65567;55.684;37.570;2023-12-20T14:36:40;2.65;;;1.67;;